sensor_id;sensor_type;location;lat;lon;timestamp;P1;durP1;ratioP1;P2;durP2;ratioP2
16179;SDS011;8196;49.428;10.906;2023-03-05T00:00:21;27.67;;;18.38;;
16179;SDS011;8196;49.428;10.906;2023-03-05T00:02:48;26.15;;;18.55;;
16179;SDS011;8196;49.428;10.906;2023-03-05T00:05:15;28.02;;;18.15;;
16179;SDS011;8196;49.428;10.906;2023-03-05T00:07:42;30.35;;;19.17;;
16179;SDS011;8196;49.428;10.906;2023-03-05T00:10:09;30.58;;;18.95;;
16179;SDS011;8196;49.428;10.906;2023-03-05T00:12:37;29.42;;;18.70;;
16179;SDS011;8196;49.428;10.906;2023-03-05T00:15:04;29.92;;;18.52;;
16179;SDS011;8196;49.428;10.906;2023-03-05T00:17:31;31.83;;;19.73;;
16179;SDS011;8196;49.428;10.906;2023-03-05T00:19:58;29.17;;;18.88;;
16179;SDS011;8196;49.428;10.906;2023-03-05T00:22:27;29.73;;;18.47;;
16179;SDS011;8196;49.428;10.906;2023-03-05T00:24:54;29.37;;;19.27;;
16179;SDS011;8196;49.428;10.906;2023-03-05T00:27:21;29.40;;;19.40;;
16179;SDS011;8196;49.428;10.906;2023-03-05T00:29:48;28.90;;;18.25;;
16179;SDS011;8196;49.428;10.906;2023-03-05T00:32:16;30.75;;;18.90;;
16179;SDS011;8196;49.428;10.906;2023-03-05T00:34:43;31.40;;;20.00;;
16179;SDS011;8196;49.428;10.906;2023-03-05T00:37:10;28.42;;;18.45;;
16179;SDS011;8196;49.428;10.906;2023-03-05T00:39:37;29.75;;;20.10;;
16179;SDS011;8196;49.428;10.906;2023-03-05T00:42:04;33.35;;;20.00;;
16179;SDS011;8196;49.428;10.906;2023-03-05T00:44:31;31.52;;;19.48;;
16179;SDS011;8196;49.428;10.906;2023-03-05T00:46:58;30.15;;;19.73;;
16179;SDS011;8196;49.428;10.906;2023-03-05T00:49:25;32.00;;;19.77;;
16179;SDS011;8196;49.428;10.906;2023-03-05T00:51:52;33.85;;;20.20;;
16179;SDS011;8196;49.428;10.906;2023-03-05T00:54:19;29.92;;;20.10;;
16179;SDS011;8196;49.428;10.906;2023-03-05T00:56:47;30.98;;;19.92;;
16179;SDS011;8196;49.428;10.906;2023-03-05T00:59:14;29.85;;;19.30;;
16179;SDS011;8196;49.428;10.906;2023-03-05T01:01:41;29.70;;;19.60;;
16179;SDS011;8196;49.428;10.906;2023-03-05T01:04:08;30.77;;;19.42;;
16179;SDS011;8196;49.428;10.906;2023-03-05T01:06:35;31.00;;;20.10;;
16179;SDS011;8196;49.428;10.906;2023-03-05T01:09:04;30.15;;;19.95;;
16179;SDS011;8196;49.428;10.906;2023-03-05T01:11:31;29.73;;;19.45;;
16179;SDS011;8196;49.428;10.906;2023-03-05T01:13:58;31.58;;;19.92;;
16179;SDS011;8196;49.428;10.906;2023-03-05T01:16:25;31.60;;;19.50;;
16179;SDS011;8196;49.428;10.906;2023-03-05T01:18:52;31.80;;;19.63;;
16179;SDS011;8196;49.428;10.906;2023-03-05T01:21:19;33.00;;;20.00;;
16179;SDS011;8196;49.428;10.906;2023-03-05T01:23:47;31.38;;;19.63;;
16179;SDS011;8196;49.428;10.906;2023-03-05T01:26:14;31.55;;;19.50;;
16179;SDS011;8196;49.428;10.906;2023-03-05T01:28:41;28.88;;;18.90;;
16179;SDS011;8196;49.428;10.906;2023-03-05T01:31:09;30.08;;;19.45;;
16179;SDS011;8196;49.428;10.906;2023-03-05T01:33:36;29.48;;;19.45;;
16179;SDS011;8196;49.428;10.906;2023-03-05T01:36:06;30.10;;;19.75;;
16179;SDS011;8196;49.428;10.906;2023-03-05T01:38:33;33.50;;;20.25;;
16179;SDS011;8196;49.428;10.906;2023-03-05T01:41:00;31.70;;;20.27;;
16179;SDS011;8196;49.428;10.906;2023-03-05T01:43:28;29.90;;;19.20;;
16179;SDS011;8196;49.428;10.906;2023-03-05T01:48:44;31.20;;;19.52;;
16179;SDS011;8196;49.428;10.906;2023-03-05T01:51:13;31.35;;;20.38;;
16179;SDS011;8196;49.428;10.906;2023-03-05T01:53:40;30.67;;;19.10;;
16179;SDS011;8196;49.428;10.906;2023-03-05T01:56:08;31.92;;;19.48;;
16179;SDS011;8196;49.428;10.906;2023-03-05T01:58:35;31.55;;;19.23;;
16179;SDS011;8196;49.428;10.906;2023-03-05T02:01:04;28.48;;;18.13;;
16179;SDS011;8196;49.428;10.906;2023-03-05T02:03:32;29.95;;;19.17;;
16179;SDS011;8196;49.428;10.906;2023-03-05T02:06:00;31.30;;;19.58;;
16179;SDS011;8196;49.428;10.906;2023-03-05T02:08:27;33.10;;;20.00;;
16179;SDS011;8196;49.428;10.906;2023-03-05T02:10:54;28.75;;;17.77;;
16179;SDS011;8196;49.428;10.906;2023-03-05T02:13:25;31.00;;;19.52;;
16179;SDS011;8196;49.428;10.906;2023-03-05T02:15:53;31.90;;;18.65;;
16179;SDS011;8196;49.428;10.906;2023-03-05T02:18:21;29.77;;;18.48;;
16179;SDS011;8196;49.428;10.906;2023-03-05T02:20:51;29.88;;;18.85;;
16179;SDS011;8196;49.428;10.906;2023-03-05T02:23:19;29.38;;;18.65;;
16179;SDS011;8196;49.428;10.906;2023-03-05T02:25:47;31.45;;;18.65;;
16179;SDS011;8196;49.428;10.906;2023-03-05T02:28:17;28.27;;;17.70;;
16179;SDS011;8196;49.428;10.906;2023-03-05T02:30:44;29.60;;;18.98;;
16179;SDS011;8196;49.428;10.906;2023-03-05T02:33:13;29.10;;;18.10;;
16179;SDS011;8196;49.428;10.906;2023-03-05T02:35:40;28.95;;;17.95;;
16179;SDS011;8196;49.428;10.906;2023-03-05T02:38:09;25.85;;;16.90;;
16179;SDS011;8196;49.428;10.906;2023-03-05T02:40:37;30.30;;;18.15;;
16179;SDS011;8196;49.428;10.906;2023-03-05T02:43:04;26.92;;;16.52;;
16179;SDS011;8196;49.428;10.906;2023-03-05T02:45:31;29.23;;;17.13;;
16179;SDS011;8196;49.428;10.906;2023-03-05T02:47:59;26.30;;;17.55;;
16179;SDS011;8196;49.428;10.906;2023-03-05T02:50:26;25.33;;;16.70;;
16179;SDS011;8196;49.428;10.906;2023-03-05T02:52:53;31.30;;;19.10;;
16179;SDS011;8196;49.428;10.906;2023-03-05T02:55:21;31.40;;;19.20;;
16179;SDS011;8196;49.428;10.906;2023-03-05T02:57:48;30.35;;;19.20;;
16179;SDS011;8196;49.428;10.906;2023-03-05T03:00:15;27.63;;;17.60;;
16179;SDS011;8196;49.428;10.906;2023-03-05T03:02:42;29.25;;;17.27;;
16179;SDS011;8196;49.428;10.906;2023-03-05T03:05:10;28.50;;;17.88;;
16179;SDS011;8196;49.428;10.906;2023-03-05T03:07:37;27.42;;;17.95;;
16179;SDS011;8196;49.428;10.906;2023-03-05T03:10:04;30.35;;;18.10;;
16179;SDS011;8196;49.428;10.906;2023-03-05T03:12:35;29.33;;;18.65;;
16179;SDS011;8196;49.428;10.906;2023-03-05T03:15:02;29.27;;;17.33;;
16179;SDS011;8196;49.428;10.906;2023-03-05T03:17:30;29.13;;;17.88;;
16179;SDS011;8196;49.428;10.906;2023-03-05T03:19:57;31.33;;;17.83;;
16179;SDS011;8196;49.428;10.906;2023-03-05T03:22:24;27.38;;;17.30;;
16179;SDS011;8196;49.428;10.906;2023-03-05T03:24:50;29.98;;;18.70;;
16179;SDS011;8196;49.428;10.906;2023-03-05T03:27:18;30.15;;;18.77;;
16179;SDS011;8196;49.428;10.906;2023-03-05T03:29:45;27.30;;;17.88;;
16179;SDS011;8196;49.428;10.906;2023-03-05T03:32:12;29.83;;;18.33;;
16179;SDS011;8196;49.428;10.906;2023-03-05T03:34:39;29.13;;;17.55;;
16179;SDS011;8196;49.428;10.906;2023-03-05T03:37:06;30.75;;;18.67;;
16179;SDS011;8196;49.428;10.906;2023-03-05T03:39:34;29.30;;;17.70;;
16179;SDS011;8196;49.428;10.906;2023-03-05T03:42:01;30.65;;;18.25;;
16179;SDS011;8196;49.428;10.906;2023-03-05T03:44:28;30.52;;;18.30;;
16179;SDS011;8196;49.428;10.906;2023-03-05T03:46:54;27.67;;;17.77;;
16179;SDS011;8196;49.428;10.906;2023-03-05T03:49:23;29.83;;;18.27;;
16179;SDS011;8196;49.428;10.906;2023-03-05T03:51:51;28.48;;;18.27;;
16179;SDS011;8196;49.428;10.906;2023-03-05T03:54:20;30.65;;;19.00;;
16179;SDS011;8196;49.428;10.906;2023-03-05T03:56:47;26.53;;;17.37;;
16179;SDS011;8196;49.428;10.906;2023-03-05T03:59:14;29.47;;;18.40;;
16179;SDS011;8196;49.428;10.906;2023-03-05T04:01:41;32.03;;;18.20;;
16179;SDS011;8196;49.428;10.906;2023-03-05T04:04:09;28.70;;;18.67;;
16179;SDS011;8196;49.428;10.906;2023-03-05T04:06:36;32.08;;;20.00;;
16179;SDS011;8196;49.428;10.906;2023-03-05T04:09:04;27.67;;;18.80;;
16179;SDS011;8196;49.428;10.906;2023-03-05T04:11:31;29.98;;;18.58;;
16179;SDS011;8196;49.428;10.906;2023-03-05T04:13:58;29.50;;;18.77;;
16179;SDS011;8196;49.428;10.906;2023-03-05T04:16:25;26.52;;;17.90;;
16179;SDS011;8196;49.428;10.906;2023-03-05T04:18:52;29.90;;;18.98;;
16179;SDS011;8196;49.428;10.906;2023-03-05T04:21:19;30.35;;;18.40;;
16179;SDS011;8196;49.428;10.906;2023-03-05T04:23:46;31.27;;;19.27;;
16179;SDS011;8196;49.428;10.906;2023-03-05T04:26:13;30.60;;;19.30;;
16179;SDS011;8196;49.428;10.906;2023-03-05T04:28:40;27.48;;;17.90;;
16179;SDS011;8196;49.428;10.906;2023-03-05T04:31:07;31.25;;;18.73;;
16179;SDS011;8196;49.428;10.906;2023-03-05T04:33:34;28.77;;;19.13;;
16179;SDS011;8196;49.428;10.906;2023-03-05T04:36:01;29.42;;;18.23;;
16179;SDS011;8196;49.428;10.906;2023-03-05T04:38:29;27.80;;;18.23;;
16179;SDS011;8196;49.428;10.906;2023-03-05T04:40:56;30.40;;;17.95;;
16179;SDS011;8196;49.428;10.906;2023-03-05T04:43:23;28.23;;;17.88;;
16179;SDS011;8196;49.428;10.906;2023-03-05T04:45:50;30.15;;;17.80;;
16179;SDS011;8196;49.428;10.906;2023-03-05T04:48:17;30.38;;;18.33;;
16179;SDS011;8196;49.428;10.906;2023-03-05T04:50:46;31.95;;;19.02;;
16179;SDS011;8196;49.428;10.906;2023-03-05T04:53:13;33.13;;;18.90;;
16179;SDS011;8196;49.428;10.906;2023-03-05T04:55:40;30.37;;;18.43;;
16179;SDS011;8196;49.428;10.906;2023-03-05T04:58:07;30.80;;;18.33;;
16179;SDS011;8196;49.428;10.906;2023-03-05T05:00:34;32.80;;;19.08;;
16179;SDS011;8196;49.428;10.906;2023-03-05T05:03:01;30.63;;;18.63;;
16179;SDS011;8196;49.428;10.906;2023-03-05T05:05:28;29.58;;;19.15;;
16179;SDS011;8196;49.428;10.906;2023-03-05T05:07:56;31.55;;;19.27;;
16179;SDS011;8196;49.428;10.906;2023-03-05T05:10:23;32.33;;;18.67;;
16179;SDS011;8196;49.428;10.906;2023-03-05T05:12:50;30.33;;;19.08;;
16179;SDS011;8196;49.428;10.906;2023-03-05T05:15:18;30.88;;;18.38;;
16179;SDS011;8196;49.428;10.906;2023-03-05T05:17:45;31.10;;;18.10;;
16179;SDS011;8196;49.428;10.906;2023-03-05T05:20:13;30.65;;;19.13;;
16179;SDS011;8196;49.428;10.906;2023-03-05T05:22:40;31.57;;;18.20;;
16179;SDS011;8196;49.428;10.906;2023-03-05T05:25:08;34.00;;;19.25;;
16179;SDS011;8196;49.428;10.906;2023-03-05T05:27:36;31.02;;;18.88;;
16179;SDS011;8196;49.428;10.906;2023-03-05T05:30:03;34.00;;;19.50;;
16179;SDS011;8196;49.428;10.906;2023-03-05T05:32:30;30.15;;;18.98;;
16179;SDS011;8196;49.428;10.906;2023-03-05T05:34:57;31.08;;;18.42;;
16179;SDS011;8196;49.428;10.906;2023-03-05T05:37:25;32.63;;;20.15;;
16179;SDS011;8196;49.428;10.906;2023-03-05T05:39:52;34.38;;;19.35;;
16179;SDS011;8196;49.428;10.906;2023-03-05T05:42:21;32.83;;;19.42;;
16179;SDS011;8196;49.428;10.906;2023-03-05T05:44:48;34.30;;;19.92;;
16179;SDS011;8196;49.428;10.906;2023-03-05T05:47:16;30.48;;;18.23;;
16179;SDS011;8196;49.428;10.906;2023-03-05T05:49:43;31.52;;;18.75;;
16179;SDS011;8196;49.428;10.906;2023-03-05T05:52:10;32.80;;;19.55;;
16179;SDS011;8196;49.428;10.906;2023-03-05T05:54:38;34.38;;;19.45;;
16179;SDS011;8196;49.428;10.906;2023-03-05T05:57:05;37.40;;;20.40;;
16179;SDS011;8196;49.428;10.906;2023-03-05T05:59:32;33.22;;;19.30;;
16179;SDS011;8196;49.428;10.906;2023-03-05T06:01:59;36.45;;;20.98;;
16179;SDS011;8196;49.428;10.906;2023-03-05T06:04:26;48.88;;;28.90;;
16179;SDS011;8196;49.428;10.906;2023-03-05T06:06:55;54.97;;;31.05;;
16179;SDS011;8196;49.428;10.906;2023-03-05T06:09:22;56.63;;;31.37;;
16179;SDS011;8196;49.428;10.906;2023-03-05T06:11:49;51.22;;;27.90;;
16179;SDS011;8196;49.428;10.906;2023-03-05T06:14:16;39.45;;;24.42;;
16179;SDS011;8196;49.428;10.906;2023-03-05T06:16:43;41.42;;;24.90;;
16179;SDS011;8196;49.428;10.906;2023-03-05T06:19:11;43.10;;;25.23;;
16179;SDS011;8196;49.428;10.906;2023-03-05T06:21:38;36.00;;;21.55;;
16179;SDS011;8196;49.428;10.906;2023-03-05T06:24:05;35.67;;;21.45;;
16179;SDS011;8196;49.428;10.906;2023-03-05T06:26:32;34.53;;;20.85;;
16179;SDS011;8196;49.428;10.906;2023-03-05T06:29:00;33.15;;;20.23;;
16179;SDS011;8196;49.428;10.906;2023-03-05T06:31:27;31.38;;;18.75;;
16179;SDS011;8196;49.428;10.906;2023-03-05T06:33:55;35.03;;;21.47;;
16179;SDS011;8196;49.428;10.906;2023-03-05T06:36:23;34.00;;;20.20;;
16179;SDS011;8196;49.428;10.906;2023-03-05T06:38:51;32.60;;;19.37;;
16179;SDS011;8196;49.428;10.906;2023-03-05T06:41:20;35.58;;;20.00;;
16179;SDS011;8196;49.428;10.906;2023-03-05T06:43:48;32.73;;;20.73;;
16179;SDS011;8196;49.428;10.906;2023-03-05T06:46:18;35.97;;;21.60;;
16179;SDS011;8196;49.428;10.906;2023-03-05T06:48:46;36.03;;;22.40;;
16179;SDS011;8196;49.428;10.906;2023-03-05T06:51:17;32.07;;;20.13;;
16179;SDS011;8196;49.428;10.906;2023-03-05T06:53:45;31.98;;;19.92;;
16179;SDS011;8196;49.428;10.906;2023-03-05T06:56:14;32.23;;;19.80;;
16179;SDS011;8196;49.428;10.906;2023-03-05T06:58:43;30.27;;;18.20;;
16179;SDS011;8196;49.428;10.906;2023-03-05T07:01:11;31.92;;;20.20;;
16179;SDS011;8196;49.428;10.906;2023-03-05T07:03:39;31.75;;;20.02;;
16179;SDS011;8196;49.428;10.906;2023-03-05T07:06:08;32.53;;;19.67;;
16179;SDS011;8196;49.428;10.906;2023-03-05T07:08:36;36.22;;;21.17;;
16179;SDS011;8196;49.428;10.906;2023-03-05T07:11:08;35.95;;;20.88;;
16179;SDS011;8196;49.428;10.906;2023-03-05T07:13:35;32.58;;;19.85;;
16179;SDS011;8196;49.428;10.906;2023-03-05T07:16:04;32.38;;;19.83;;
16179;SDS011;8196;49.428;10.906;2023-03-05T07:18:31;31.90;;;19.80;;
16179;SDS011;8196;49.428;10.906;2023-03-05T07:21:02;32.40;;;19.63;;
16179;SDS011;8196;49.428;10.906;2023-03-05T07:23:29;29.98;;;19.58;;
16179;SDS011;8196;49.428;10.906;2023-03-05T07:25:59;31.50;;;19.80;;
16179;SDS011;8196;49.428;10.906;2023-03-05T07:28:27;31.50;;;20.08;;
16179;SDS011;8196;49.428;10.906;2023-03-05T07:30:56;32.00;;;19.83;;
16179;SDS011;8196;49.428;10.906;2023-03-05T07:33:24;32.78;;;20.27;;
16179;SDS011;8196;49.428;10.906;2023-03-05T07:35:51;32.47;;;20.35;;
16179;SDS011;8196;49.428;10.906;2023-03-05T07:38:18;33.03;;;19.92;;
16179;SDS011;8196;49.428;10.906;2023-03-05T07:40:46;28.53;;;17.53;;
16179;SDS011;8196;49.428;10.906;2023-03-05T07:43:13;29.45;;;19.98;;
16179;SDS011;8196;49.428;10.906;2023-03-05T07:45:40;29.27;;;19.90;;
16179;SDS011;8196;49.428;10.906;2023-03-05T07:48:11;26.25;;;16.13;;
16179;SDS011;8196;49.428;10.906;2023-03-05T07:50:40;27.13;;;16.23;;
16179;SDS011;8196;49.428;10.906;2023-03-05T07:53:08;26.35;;;18.70;;
16179;SDS011;8196;49.428;10.906;2023-03-05T07:55:40;24.88;;;17.70;;
16179;SDS011;8196;49.428;10.906;2023-03-05T07:58:08;24.52;;;15.73;;
16179;SDS011;8196;49.428;10.906;2023-03-05T08:00:35;24.77;;;15.80;;
16179;SDS011;8196;49.428;10.906;2023-03-05T08:03:02;22.05;;;15.82;;
16179;SDS011;8196;49.428;10.906;2023-03-05T08:07:56;21.02;;;14.57;;
16179;SDS011;8196;49.428;10.906;2023-03-05T08:10:23;19.73;;;13.70;;
16179;SDS011;8196;49.428;10.906;2023-03-05T08:12:50;19.85;;;12.02;;
16179;SDS011;8196;49.428;10.906;2023-03-05T08:15:17;15.57;;;11.10;;
16179;SDS011;8196;49.428;10.906;2023-03-05T08:17:44;15.40;;;10.80;;
16179;SDS011;8196;49.428;10.906;2023-03-05T08:20:11;15.38;;;10.25;;
16179;SDS011;8196;49.428;10.906;2023-03-05T08:22:38;12.68;;;9.02;;
16179;SDS011;8196;49.428;10.906;2023-03-05T08:25:05;12.68;;;9.30;;
16179;SDS011;8196;49.428;10.906;2023-03-05T08:27:32;14.23;;;9.60;;
16179;SDS011;8196;49.428;10.906;2023-03-05T08:30:03;11.75;;;7.18;;
16179;SDS011;8196;49.428;10.906;2023-03-05T08:32:30;12.77;;;7.32;;
16179;SDS011;8196;49.428;10.906;2023-03-05T08:34:57;11.27;;;7.57;;
16179;SDS011;8196;49.428;10.906;2023-03-05T08:37:24;12.70;;;8.98;;
16179;SDS011;8196;49.428;10.906;2023-03-05T08:39:50;13.15;;;9.20;;
16179;SDS011;8196;49.428;10.906;2023-03-05T08:42:17;12.03;;;7.20;;
16179;SDS011;8196;49.428;10.906;2023-03-05T08:44:44;11.77;;;7.40;;
16179;SDS011;8196;49.428;10.906;2023-03-05T08:47:11;10.68;;;7.15;;
16179;SDS011;8196;49.428;10.906;2023-03-05T08:49:38;9.43;;;6.50;;
16179;SDS011;8196;49.428;10.906;2023-03-05T08:52:05;11.98;;;8.15;;
16179;SDS011;8196;49.428;10.906;2023-03-05T08:54:33;9.63;;;6.10;;
16179;SDS011;8196;49.428;10.906;2023-03-05T08:57:00;10.70;;;6.43;;
16179;SDS011;8196;49.428;10.906;2023-03-05T08:59:27;10.48;;;5.40;;
16179;SDS011;8196;49.428;10.906;2023-03-05T09:01:54;8.98;;;5.00;;
16179;SDS011;8196;49.428;10.906;2023-03-05T09:04:21;8.55;;;4.82;;
16179;SDS011;8196;49.428;10.906;2023-03-05T09:06:48;7.78;;;4.97;;
16179;SDS011;8196;49.428;10.906;2023-03-05T09:09:15;5.95;;;4.13;;
16179;SDS011;8196;49.428;10.906;2023-03-05T09:11:45;7.45;;;4.65;;
16179;SDS011;8196;49.428;10.906;2023-03-05T09:14:13;6.20;;;4.28;;
16179;SDS011;8196;49.428;10.906;2023-03-05T09:16:39;6.80;;;3.83;;
16179;SDS011;8196;49.428;10.906;2023-03-05T09:19:07;5.43;;;3.60;;
16179;SDS011;8196;49.428;10.906;2023-03-05T09:21:35;6.30;;;3.90;;
16179;SDS011;8196;49.428;10.906;2023-03-05T09:24:02;6.60;;;4.00;;
16179;SDS011;8196;49.428;10.906;2023-03-05T09:26:29;5.57;;;3.83;;
16179;SDS011;8196;49.428;10.906;2023-03-05T09:28:56;6.63;;;3.95;;
16179;SDS011;8196;49.428;10.906;2023-03-05T09:31:23;5.50;;;3.80;;
16179;SDS011;8196;49.428;10.906;2023-03-05T09:33:50;7.20;;;4.03;;
16179;SDS011;8196;49.428;10.906;2023-03-05T09:36:19;6.40;;;4.30;;
16179;SDS011;8196;49.428;10.906;2023-03-05T09:38:47;6.28;;;3.67;;
16179;SDS011;8196;49.428;10.906;2023-03-05T09:41:16;7.35;;;3.95;;
16179;SDS011;8196;49.428;10.906;2023-03-05T09:46:27;8.35;;;3.72;;
16179;SDS011;8196;49.428;10.906;2023-03-05T09:48:59;4.93;;;3.80;;
16179;SDS011;8196;49.428;10.906;2023-03-05T09:51:30;6.40;;;3.83;;
16179;SDS011;8196;49.428;10.906;2023-03-05T09:54:03;5.93;;;4.17;;
16179;SDS011;8196;49.428;10.906;2023-03-05T09:56:36;5.72;;;3.65;;
16179;SDS011;8196;49.428;10.906;2023-03-05T09:59:25;5.88;;;3.88;;
16179;SDS011;8196;49.428;10.906;2023-03-05T10:01:55;6.75;;;3.90;;
16179;SDS011;8196;49.428;10.906;2023-03-05T10:04:24;6.33;;;4.37;;
16179;SDS011;8196;49.428;10.906;2023-03-05T10:06:55;7.73;;;4.23;;
16179;SDS011;8196;49.428;10.906;2023-03-05T10:09:38;6.90;;;4.18;;
16179;SDS011;8196;49.428;10.906;2023-03-05T10:14:56;7.25;;;4.40;;
16179;SDS011;8196;49.428;10.906;2023-03-05T10:20:38;7.00;;;4.20;;
16179;SDS011;8196;49.428;10.906;2023-03-05T10:23:19;7.57;;;4.68;;
16179;SDS011;8196;49.428;10.906;2023-03-05T10:26:11;6.05;;;4.07;;
16179;SDS011;8196;49.428;10.906;2023-03-05T10:29:00;6.80;;;4.80;;
16179;SDS011;8196;49.428;10.906;2023-03-05T10:36:45;5.00;;;3.47;;
16179;SDS011;8196;49.428;10.906;2023-03-05T10:42:16;4.53;;;3.28;;
16179;SDS011;8196;49.428;10.906;2023-03-05T10:45:16;5.20;;;3.22;;
16179;SDS011;8196;49.428;10.906;2023-03-05T10:47:48;4.40;;;3.10;;
16179;SDS011;8196;49.428;10.906;2023-03-05T10:50:22;3.97;;;3.03;;
16179;SDS011;8196;49.428;10.906;2023-03-05T10:55:59;3.30;;;2.53;;
16179;SDS011;8196;49.428;10.906;2023-03-05T10:58:27;3.40;;;2.22;;
16179;SDS011;8196;49.428;10.906;2023-03-05T11:00:58;4.05;;;2.60;;
16179;SDS011;8196;49.428;10.906;2023-03-05T11:03:44;4.15;;;2.53;;
16179;SDS011;8196;49.428;10.906;2023-03-05T11:06:25;3.55;;;2.58;;
16179;SDS011;8196;49.428;10.906;2023-03-05T11:08:53;4.23;;;2.50;;
16179;SDS011;8196;49.428;10.906;2023-03-05T11:11:22;4.53;;;2.73;;
16179;SDS011;8196;49.428;10.906;2023-03-05T11:13:50;4.07;;;2.65;;
16179;SDS011;8196;49.428;10.906;2023-03-05T11:16:21;3.65;;;2.10;;
16179;SDS011;8196;49.428;10.906;2023-03-05T11:18:48;3.42;;;2.22;;
16179;SDS011;8196;49.428;10.906;2023-03-05T11:21:22;3.83;;;2.15;;
16179;SDS011;8196;49.428;10.906;2023-03-05T11:26:45;4.40;;;2.40;;
16179;SDS011;8196;49.428;10.906;2023-03-05T11:29:16;3.50;;;1.90;;
16179;SDS011;8196;49.428;10.906;2023-03-05T11:31:46;4.13;;;2.00;;
16179;SDS011;8196;49.428;10.906;2023-03-05T11:39:21;3.22;;;2.08;;
16179;SDS011;8196;49.428;10.906;2023-03-05T11:41:51;2.80;;;2.10;;
16179;SDS011;8196;49.428;10.906;2023-03-05T11:44:20;2.73;;;1.70;;
16179;SDS011;8196;49.428;10.906;2023-03-05T11:46:51;2.85;;;1.80;;
16179;SDS011;8196;49.428;10.906;2023-03-05T11:49:23;3.28;;;2.00;;
16179;SDS011;8196;49.428;10.906;2023-03-05T11:51:55;2.90;;;1.80;;
16179;SDS011;8196;49.428;10.906;2023-03-05T11:54:32;3.72;;;1.80;;
16179;SDS011;8196;49.428;10.906;2023-03-05T11:57:05;3.53;;;2.10;;
16179;SDS011;8196;49.428;10.906;2023-03-05T11:59:36;2.80;;;1.80;;
16179;SDS011;8196;49.428;10.906;2023-03-05T12:02:13;2.70;;;1.80;;
16179;SDS011;8196;49.428;10.906;2023-03-05T12:04:44;2.00;;;1.55;;
16179;SDS011;8196;49.428;10.906;2023-03-05T12:07:12;4.37;;;1.70;;
16179;SDS011;8196;49.428;10.906;2023-03-05T12:09:45;2.63;;;2.08;;
16179;SDS011;8196;49.428;10.906;2023-03-05T12:19:59;2.40;;;1.50;;
16179;SDS011;8196;49.428;10.906;2023-03-05T12:22:36;1.88;;;1.40;;
16179;SDS011;8196;49.428;10.906;2023-03-05T12:25:23;2.17;;;1.50;;
16179;SDS011;8196;49.428;10.906;2023-03-05T12:28:12;2.30;;;1.42;;
16179;SDS011;8196;49.428;10.906;2023-03-05T12:36:25;2.70;;;1.70;;
16179;SDS011;8196;49.428;10.906;2023-03-05T12:38:42;2.58;;;1.40;;
16179;SDS011;8196;49.428;10.906;2023-03-05T12:46:38;3.10;;;1.60;;
16179;SDS011;8196;49.428;10.906;2023-03-05T12:51:54;3.28;;;1.80;;
16179;SDS011;8196;49.428;10.906;2023-03-05T12:54:30;2.17;;;1.30;;
16179;SDS011;8196;49.428;10.906;2023-03-05T12:57:00;3.40;;;2.05;;
16179;SDS011;8196;49.428;10.906;2023-03-05T12:59:34;2.58;;;1.60;;
16179;SDS011;8196;49.428;10.906;2023-03-05T13:02:13;3.25;;;2.00;;
16179;SDS011;8196;49.428;10.906;2023-03-05T13:04:45;2.80;;;1.70;;
16179;SDS011;8196;49.428;10.906;2023-03-05T13:07:14;1.83;;;1.60;;
16179;SDS011;8196;49.428;10.906;2023-03-05T13:09:50;4.63;;;1.88;;
16179;SDS011;8196;49.428;10.906;2023-03-05T13:12:21;2.90;;;1.90;;
16179;SDS011;8196;49.428;10.906;2023-03-05T13:15:05;2.78;;;2.00;;
16179;SDS011;8196;49.428;10.906;2023-03-05T13:20:22;2.65;;;2.20;;
16179;SDS011;8196;49.428;10.906;2023-03-05T13:25:42;3.92;;;2.40;;
16179;SDS011;8196;49.428;10.906;2023-03-05T13:28:12;3.53;;;2.42;;
16179;SDS011;8196;49.428;10.906;2023-03-05T13:30:43;3.97;;;2.35;;
16179;SDS011;8196;49.428;10.906;2023-03-05T13:33:15;3.17;;;2.47;;
16179;SDS011;8196;49.428;10.906;2023-03-05T13:35:44;5.43;;;4.50;;
16179;SDS011;8196;49.428;10.906;2023-03-05T13:38:20;4.38;;;3.75;;
16179;SDS011;8196;49.428;10.906;2023-03-05T13:41:00;4.50;;;2.50;;
16179;SDS011;8196;49.428;10.906;2023-03-05T13:43:29;4.37;;;2.83;;
16179;SDS011;8196;49.428;10.906;2023-03-05T13:45:56;5.33;;;3.20;;
16179;SDS011;8196;49.428;10.906;2023-03-05T13:48:25;4.07;;;3.20;;
16179;SDS011;8196;49.428;10.906;2023-03-05T13:50:54;3.50;;;3.00;;
16179;SDS011;8196;49.428;10.906;2023-03-05T13:53:26;3.90;;;2.80;;
16179;SDS011;8196;49.428;10.906;2023-03-05T13:55:56;4.32;;;3.35;;
16179;SDS011;8196;49.428;10.906;2023-03-05T14:01:23;4.13;;;3.00;;
16179;SDS011;8196;49.428;10.906;2023-03-05T14:03:53;4.83;;;3.50;;
16179;SDS011;8196;49.428;10.906;2023-03-05T14:06:24;4.80;;;3.05;;
16179;SDS011;8196;49.428;10.906;2023-03-05T14:08:58;5.25;;;3.10;;
16179;SDS011;8196;49.428;10.906;2023-03-05T14:11:32;4.22;;;3.17;;
16179;SDS011;8196;49.428;10.906;2023-03-05T14:14:08;5.40;;;3.20;;
16179;SDS011;8196;49.428;10.906;2023-03-05T14:16:35;4.33;;;2.90;;
16179;SDS011;8196;49.428;10.906;2023-03-05T14:19:02;5.93;;;3.23;;
16179;SDS011;8196;49.428;10.906;2023-03-05T14:21:48;4.30;;;3.20;;
16179;SDS011;8196;49.428;10.906;2023-03-05T14:24:20;5.15;;;3.10;;
16179;SDS011;8196;49.428;10.906;2023-03-05T14:26:50;4.82;;;3.33;;
16179;SDS011;8196;49.428;10.906;2023-03-05T14:29:18;7.10;;;3.53;;
16179;SDS011;8196;49.428;10.906;2023-03-05T14:31:48;5.38;;;3.38;;
16179;SDS011;8196;49.428;10.906;2023-03-05T14:34:31;5.25;;;3.90;;
16179;SDS011;8196;49.428;10.906;2023-03-05T14:37:03;4.90;;;3.78;;
16179;SDS011;8196;49.428;10.906;2023-03-05T14:39:34;5.38;;;3.70;;
16179;SDS011;8196;49.428;10.906;2023-03-05T14:44:52;6.28;;;4.18;;
16179;SDS011;8196;49.428;10.906;2023-03-05T14:47:21;5.13;;;3.60;;
16179;SDS011;8196;49.428;10.906;2023-03-05T14:49:49;5.45;;;3.88;;
16179;SDS011;8196;49.428;10.906;2023-03-05T14:52:16;6.28;;;3.97;;
16179;SDS011;8196;49.428;10.906;2023-03-05T14:54:44;4.65;;;3.60;;
16179;SDS011;8196;49.428;10.906;2023-03-05T14:57:14;5.70;;;3.63;;
16179;SDS011;8196;49.428;10.906;2023-03-05T14:59:42;6.68;;;4.25;;
16179;SDS011;8196;49.428;10.906;2023-03-05T15:02:12;6.35;;;4.40;;
16179;SDS011;8196;49.428;10.906;2023-03-05T15:04:40;5.75;;;3.80;;
16179;SDS011;8196;49.428;10.906;2023-03-05T15:07:09;6.47;;;3.80;;
16179;SDS011;8196;49.428;10.906;2023-03-05T15:09:36;5.97;;;4.60;;
16179;SDS011;8196;49.428;10.906;2023-03-05T15:12:03;5.75;;;4.60;;
16179;SDS011;8196;49.428;10.906;2023-03-05T15:14:30;7.55;;;4.90;;
16179;SDS011;8196;49.428;10.906;2023-03-05T15:16:57;6.68;;;4.68;;
16179;SDS011;8196;49.428;10.906;2023-03-05T15:19:24;7.53;;;4.85;;
16179;SDS011;8196;49.428;10.906;2023-03-05T15:21:51;6.22;;;4.43;;
16179;SDS011;8196;49.428;10.906;2023-03-05T15:24:18;7.05;;;4.85;;
16179;SDS011;8196;49.428;10.906;2023-03-05T15:26:45;8.85;;;5.30;;
16179;SDS011;8196;49.428;10.906;2023-03-05T15:29:15;9.38;;;5.78;;
16179;SDS011;8196;49.428;10.906;2023-03-05T15:31:42;7.30;;;5.15;;
16179;SDS011;8196;49.428;10.906;2023-03-05T15:34:09;7.68;;;5.53;;
16179;SDS011;8196;49.428;10.906;2023-03-05T15:36:36;7.57;;;5.18;;
16179;SDS011;8196;49.428;10.906;2023-03-05T15:39:03;8.50;;;5.35;;
16179;SDS011;8196;49.428;10.906;2023-03-05T15:41:30;6.47;;;4.20;;
16179;SDS011;8196;49.428;10.906;2023-03-05T15:43:57;9.75;;;5.88;;
16179;SDS011;8196;49.428;10.906;2023-03-05T15:48:51;6.75;;;4.68;;
16179;SDS011;8196;49.428;10.906;2023-03-05T15:51:18;6.70;;;4.68;;